Time;durP1;ratioP1;P1;durP2;ratioP2;P2;SDS_P1;SDS_P2;PMS_P1;PMS_P2;Temp;Humidity;BMP_temperature;BMP_pressure;BME280_temperature;BME280_humidity;BME280_pressure;Samples;Min_cycle;Max_cycle;Signal;HPM_P1;HPM_P2
2021/12/07 00:02:10;;;;;;;4.20;2.00;;;22.70;99.90;;;;;;5009307;28;20084;-72
2021/12/07 00:04:39;;;;;;;8.77;2.08;;;22.90;99.90;;;;;;5010216;28;20075;-71
2021/12/07 00:07:07;;;;;;;4.57;1.33;;;23.00;99.90;;;;;;5008068;28;20048;-67
2021/12/07 00:09:35;;;;;;;5.03;1.65;;;23.00;99.90;;;;;;5008214;28;20033;-66
2021/12/07 00:12:04;;;;;;;3.95;1.60;;;22.90;99.90;;;;;;5007057;28;20498;-66
2021/12/07 00:14:38;;;;;;;11.13;2.83;;;22.80;99.90;;;;;;5010884;28;20044;-69
2021/12/07 00:17:06;;;;;;;6.45;1.85;;;23.00;99.90;;;;;;5009849;28;20045;-67
2021/12/07 00:19:34;;;;;;;6.30;2.17;;;23.30;99.90;;;;;;5014310;28;20017;-69
2021/12/07 00:22:03;;;;;;;4.55;1.80;;;23.30;99.90;;;;;;5012757;28;20060;-68
2021/12/07 00:24:30;;;;;;;8.50;1.58;;;23.40;99.90;;;;;;5014978;28;20120;-65
2021/12/07 00:26:58;;;;;;;9.02;2.85;;;23.60;99.90;;;;;;5013069;28;20029;-71
2021/12/07 00:29:27;;;;;;;5.40;1.88;;;23.70;99.90;;;;;;5012161;28;20030;-70
2021/12/07 00:32:15;;;;;;;7.50;1.88;;;23.90;99.90;;;;;;5011062;28;20068;-69
2021/12/07 00:35:12;;;;;;;7.00;2.33;;;23.90;99.90;;;;;;5013279;28;20034;-66
2021/12/07 00:37:34;;;;;;;6.55;1.73;;;24.00;99.90;;;;;;5013073;28;20115;-64
2021/12/07 00:40:03;;;;;;;7.75;2.42;;;24.20;99.90;;;;;;5011209;28;20156;-65
2021/12/07 00:42:30;;;;;;;7.05;2.17;;;24.40;99.90;;;;;;5013479;28;20637;-71
2021/12/07 00:44:59;;;;;;;5.25;1.70;;;24.50;99.90;;;;;;5012259;28;20037;-66
2021/12/07 00:47:27;;;;;;;3.97;1.52;;;24.70;99.90;;;;;;5014209;28;20050;-67
2021/12/07 00:49:54;;;;;;;9.20;1.92;;;25.00;99.90;;;;;;5014222;28;20100;-68
2021/12/07 00:52:21;;;;;;;4.47;1.75;;;25.30;99.90;;;;;;5012106;28;20028;-66
2021/12/07 00:54:49;;;;;;;4.22;2.00;;;25.50;99.90;;;;;;5013478;28;20033;-67
2021/12/07 00:57:16;;;;;;;3.95;1.85;;;25.60;99.90;;;;;;5010953;28;20540;-67
2021/12/07 00:59:44;;;;;;;4.82;1.60;;;25.50;99.90;;;;;;5013826;28;20040;-71
2021/12/07 01:02:11;;;;;;;6.53;2.20;;;25.30;99.90;;;;;;5012279;28;20124;-66
2021/12/07 01:04:39;;;;;;;6.38;1.60;;;25.40;99.90;;;;;;5014728;28;20036;-65
2021/12/07 01:07:17;;;;;;;7.10;2.58;;;25.40;99.90;;;;;;5012351;28;20489;-68
2021/12/07 01:26:16;;;;;;;2.88;1.42;;;26.30;99.90;;;;;;5013614;28;20087;-67
2021/12/07 01:28:45;;;;;;;3.83;2.13;;;26.40;99.90;;;;;;5010890;28;20057;-70
2021/12/07 01:36:34;;;;;;;4.15;1.67;;;26.90;99.90;;;;;;5010351;28;21470;-66
2021/12/07 01:52:59;;;;;;;3.15;1.13;;;27.80;99.90;;;;;;5013198;28;20529;-66
2021/12/07 02:00:52;;;;;;;3.05;1.40;;;28.30;98.50;;;;;;5011135;28;20029;-68
2021/12/07 02:03:19;;;;;;;4.68;1.27;;;28.30;98.00;;;;;;5013917;28;20022;-67
2021/12/07 02:05:47;;;;;;;5.60;1.20;;;28.40;98.50;;;;;;5010167;28;20048;-67
2021/12/07 02:08:15;;;;;;;2.67;1.30;;;28.50;98.10;;;;;;5014131;28;20053;-67
2021/12/07 02:10:43;;;;;;;3.53;1.42;;;28.60;98.20;;;;;;5010708;28;20053;-66
2021/12/07 02:14:14;;;;;;;6.40;1.98;;;28.70;97.70;;;;;;5010929;28;20910;-67
2021/12/07 02:16:08;;;;;;;4.35;1.23;;;28.90;97.50;;;;;;5011208;28;20498;-65
2021/12/07 02:18:36;;;;;;;4.13;2.10;;;29.10;97.10;;;;;;5012707;28;20406;-68
2021/12/07 02:21:17;;;;;;;2.97;1.52;;;29.30;95.90;;;;;;5010872;28;20710;-67
2021/12/07 02:23:44;;;;;;;4.88;1.42;;;29.40;95.60;;;;;;5011259;28;20037;-65
2021/12/07 02:26:12;;;;;;;4.70;1.33;;;29.50;96.00;;;;;;5010705;28;20091;-65
2021/12/07 02:28:40;;;;;;;2.83;1.45;;;29.60;95.00;;;;;;5012847;28;20033;-69
2021/12/07 02:31:09;;;;;;;4.40;1.35;;;29.80;95.30;;;;;;5011182;28;20434;-68
2021/12/07 02:33:37;;;;;;;6.22;1.50;;;30.00;94.50;;;;;;5012534;28;20025;-68
2021/12/07 02:36:06;;;;;;;6.18;2.10;;;30.10;94.60;;;;;;5010407;28;20025;-70
2021/12/07 02:38:35;;;;;;;7.85;1.50;;;30.30;93.90;;;;;;5011944;28;20080;-70
2021/12/07 02:41:02;;;;;;;2.88;1.20;;;30.20;93.70;;;;;;5009048;28;20048;-74
2021/12/07 02:43:30;;;;;;;4.13;1.40;;;30.30;93.70;;;;;;5011727;28;20214;-71
2021/12/07 02:45:57;;;;;;;8.25;2.33;;;30.50;93.20;;;;;;5010210;28;20517;-69
2021/12/07 02:48:25;;;;;;;6.07;1.98;;;30.50;93.40;;;;;;5012150;28;20415;-70
2021/12/07 02:50:52;;;;;;;10.68;2.22;;;30.80;94.80;;;;;;5012168;28;20040;-70
2021/12/07 02:53:26;;;;;;;6.57;2.42;;;30.90;93.00;;;;;;5011618;28;20032;-73
2021/12/07 02:55:56;;;;;;;6.00;1.92;;;31.20;92.40;;;;;;5011408;28;20029;-69
2021/12/07 02:58:24;;;;;;;10.45;2.65;;;31.30;91.70;;;;;;5002999;28;20140;-71
2021/12/07 03:01:00;;;;;;;6.28;1.70;;;31.50;91.50;;;;;;4996350;28;20113;-72
2021/12/07 03:03:31;;;;;;;7.03;1.90;;;31.90;91.50;;;;;;4996733;28;20029;-69
2021/12/07 03:27:54;;;;;;;8.02;2.20;;;31.20;90.00;;;;;;5015850;28;20199;-68
2021/12/07 03:30:22;;;;;;;6.18;1.80;;;31.00;90.20;;;;;;5015708;28;20080;-72
2021/12/07 03:32:50;;;;;;;6.38;1.42;;;30.90;90.30;;;;;;5016396;28;20277;-69
2021/12/07 03:35:18;;;;;;;5.95;1.80;;;31.30;89.40;;;;;;5016272;28;20026;-75
2021/12/07 03:37:45;;;;;;;9.10;2.72;;;31.30;89.00;;;;;;5016373;28;20399;-78
2021/12/07 03:40:14;;;;;;;7.15;2.10;;;31.50;88.40;;;;;;5014106;28;20822;-72
2021/12/07 03:42:41;;;;;;;4.97;1.48;;;31.80;87.60;;;;;;5016286;28;20041;-71
2021/12/07 03:45:10;;;;;;;8.30;1.70;;;32.10;87.90;;;;;;5016068;28;20417;-71
2021/12/07 03:47:38;;;;;;;4.97;1.98;;;32.20;85.60;;;;;;5015651;28;20193;-72
2021/12/07 03:50:08;;;;;;;4.45;1.38;;;31.70;86.50;;;;;;5015799;28;20458;-74
2021/12/07 03:52:35;;;;;;;6.07;1.63;;;31.60;87.90;;;;;;5018194;28;20470;-71
2021/12/07 03:55:04;;;;;;;6.18;1.63;;;31.70;88.20;;;;;;5020271;28;20022;-77
2021/12/07 03:57:31;;;;;;;8.38;1.45;;;31.90;86.10;;;;;;5019725;28;20030;-75
2021/12/07 04:00:00;;;;;;;6.38;1.45;;;32.20;85.80;;;;;;5019366;28;20031;-75
2021/12/07 04:02:27;;;;;;;6.25;1.60;;;32.40;85.10;;;;;;5019441;28;20079;-72
2021/12/07 04:05:00;;;;;;;6.38;1.63;;;32.40;85.20;;;;;;5019079;28;20036;-69
2021/12/07 04:07:28;;;;;;;10.10;1.73;;;32.40;84.40;;;;;;5019404;28;20197;-67
2021/12/07 04:09:55;;;;;;;7.85;1.15;;;32.20;84.10;;;;;;5020363;28;20072;-68
2021/12/07 04:12:22;;;;;;;6.40;1.65;;;32.40;83.60;;;;;;5019455;28;20108;-71
2021/12/07 04:14:50;;;;;;;6.60;1.63;;;32.30;83.40;;;;;;5019233;28;20025;-74
2021/12/07 04:17:18;;;;;;;10.15;1.70;;;31.70;83.80;;;;;;5019313;28;20021;-73
2021/12/07 04:19:45;;;;;;;6.82;1.58;;;30.40;88.30;;;;;;5017895;28;20021;-67
2021/12/07 04:22:13;;;;;;;6.03;1.98;;;29.30;90.90;;;;;;5019346;28;20056;-69
2021/12/07 04:24:40;;;;;;;6.07;2.13;;;28.50;92.10;;;;;;5018870;28;20021;-75
2021/12/07 04:27:08;;;;;;;6.22;1.65;;;27.90;93.50;;;;;;5018319;28;20029;-74
2021/12/07 04:29:35;;;;;;;6.47;1.83;;;27.20;95.00;;;;;;5018417;28;20030;-72
2021/12/07 04:32:03;;;;;;;6.70;1.83;;;26.80;96.20;;;;;;5018346;28;20417;-72
2021/12/07 04:34:30;;;;;;;7.53;2.03;;;26.50;97.00;;;;;;5018965;28;20032;-73
2021/12/07 04:36:57;;;;;;;7.63;2.08;;;26.10;97.90;;;;;;5019333;28;20474;-70
2021/12/07 04:39:25;;;;;;;8.25;2.25;;;25.90;98.70;;;;;;5019472;28;20025;-75
2021/12/07 04:41:53;;;;;;;11.57;3.47;;;25.70;99.90;;;;;;5017974;28;20034;-75
2021/12/07 04:44:22;;;;;;;23.80;5.72;;;25.40;99.90;;;;;;5019088;28;20870;-74
2021/12/07 04:57:38;;;;;;;13.25;4.13;;;22.00;99.90;;;;;;5018808;28;20090;-78
2021/12/07 05:00:24;;;;;;;7.88;3.90;;;21.80;99.90;;;;;;5018463;28;20075;-71
2021/12/07 05:03:06;;;;;;;6.28;3.13;;;21.80;99.90;;;;;;5016295;28;20076;-76
2021/12/07 05:05:39;;;;;;;8.10;3.25;;;21.60;99.90;;;;;;5019527;28;20022;-70
2021/12/07 05:08:10;;;;;;;5.18;2.88;;;21.40;99.90;;;;;;5018835;28;20405;-73
2021/12/07 05:39:56;;;;;;;12.00;4.82;;;21.90;99.90;;;;;;5017513;28;20113;-71
2021/12/07 05:42:24;;;;;;;10.00;4.53;;;22.00;99.90;;;;;;5018020;28;20059;-75
2021/12/07 05:44:53;;;;;;;10.52;4.43;;;22.00;99.90;;;;;;5017450;28;20379;-72
2021/12/07 05:47:20;;;;;;;11.18;3.70;;;22.00;99.90;;;;;;5017291;28;20128;-71
2021/12/07 05:49:48;;;;;;;10.25;3.97;;;22.10;99.90;;;;;;5016890;28;20014;-68
2021/12/07 05:52:15;;;;;;;12.77;3.28;;;22.10;99.90;;;;;;5017106;28;20056;-70
2021/12/07 05:54:43;;;;;;;7.50;2.90;;;22.10;99.90;;;;;;5014157;28;20034;-75
2021/12/07 05:57:10;;;;;;;8.90;3.00;;;22.00;99.90;;;;;;5013344;28;20028;-73
2021/12/07 05:59:37;;;;;;;6.78;3.15;;;22.00;99.90;;;;;;5016735;28;20422;-69
2021/12/07 06:02:05;;;;;;;8.32;2.92;;;22.00;99.90;;;;;;5016814;28;20036;-67
2021/12/07 06:04:32;;;;;;;11.77;4.68;;;22.00;99.90;;;;;;5001503;28;20407;-76
2021/12/07 06:07:00;;;;;;;8.15;3.58;;;22.00;99.90;;;;;;5010980;28;20025;-76
2021/12/07 06:09:28;;;;;;;9.77;3.30;;;22.10;99.90;;;;;;5017340;28;20021;-68
2021/12/07 06:11:55;;;;;;;6.80;4.20;;;22.10;99.90;;;;;;5018038;28;20112;-73
2021/12/07 06:14:30;;;;;;;6.13;3.70;;;22.10;99.90;;;;;;5016528;28;20029;-75
2021/12/07 06:16:58;;;;;;;9.43;3.40;;;22.10;99.90;;;;;;5017052;28;20032;-75
2021/12/07 06:19:25;;;;;;;7.38;4.78;;;22.10;99.90;;;;;;5012621;28;20023;-72
2021/12/07 06:21:53;;;;;;;6.57;3.60;;;22.10;99.90;;;;;;5016408;28;20430;-75
2021/12/07 06:24:20;;;;;;;7.93;4.28;;;22.10;99.90;;;;;;5017056;28;20270;-74
2021/12/07 06:26:47;;;;;;;8.63;3.53;;;22.10;99.90;;;;;;5017928;28;20026;-71
2021/12/07 06:29:15;;;;;;;9.43;4.07;;;22.10;99.90;;;;;;5016498;28;20032;-68
2021/12/07 06:31:42;;;;;;;8.57;3.70;;;22.20;99.90;;;;;;5017972;28;20067;-74
2021/12/07 06:34:10;;;;;;;6.05;3.38;;;22.10;99.90;;;;;;5016244;28;20478;-74
2021/12/07 06:36:38;;;;;;;10.38;4.20;;;22.10;99.90;;;;;;5016950;28;20418;-74
2021/12/07 06:39:08;;;;;;;6.65;3.67;;;22.10;99.90;;;;;;5015542;28;20071;-69
2021/12/07 06:41:36;;;;;;;7.20;3.20;;;22.10;99.90;;;;;;5015782;28;20083;-67
2021/12/07 06:44:03;;;;;;;9.38;3.55;;;22.10;99.90;;;;;;5015738;28;20024;-74
2021/12/07 06:46:31;;;;;;;9.60;3.42;;;22.00;99.90;;;;;;5016910;28;20042;-71
2021/12/07 06:48:58;;;;;;;10.15;3.97;;;22.00;99.90;;;;;;5016649;28;20021;-74
2021/12/07 06:51:25;;;;;;;6.65;3.38;;;22.00;99.90;;;;;;5016433;28;20021;-72
2021/12/07 06:53:52;;;;;;;9.20;3.95;;;22.00;99.90;;;;;;5017263;28;20116;-75
2021/12/07 06:56:20;;;;;;;6.97;3.85;;;22.10;99.90;;;;;;5017059;28;20481;-70
2021/12/07 06:58:47;;;;;;;8.32;3.75;;;22.10;99.90;;;;;;5017644;28;20124;-72
2021/12/07 07:01:15;;;;;;;5.45;3.30;;;22.10;99.90;;;;;;5015775;28;20065;-70
2021/12/07 07:03:43;;;;;;;9.73;4.53;;;22.10;99.90;;;;;;5017155;28;20164;-70
2021/12/07 07:06:10;;;;;;;10.90;4.53;;;22.10;99.90;;;;;;5016221;28;20018;-68
2021/12/07 07:08:37;;;;;;;9.68;3.30;;;22.10;99.90;;;;;;5016986;28;20021;-67
2021/12/07 07:11:06;;;;;;;11.02;4.22;;;22.20;99.90;;;;;;5016626;28;20032;-71
2021/12/07 07:13:33;;;;;;;8.75;3.63;;;22.20;99.90;;;;;;5016370;28;20577;-73
2021/12/07 07:16:01;;;;;;;6.88;3.05;;;22.20;99.90;;;;;;5016600;28;20060;-68
2021/12/07 07:18:28;;;;;;;7.63;3.47;;;22.10;99.90;;;;;;5016153;28;20042;-68
2021/12/07 07:20:56;;;;;;;7.15;4.25;;;22.10;99.90;;;;;;5017096;28;20060;-70
2021/12/07 07:23:24;;;;;;;9.98;5.63;;;22.10;99.90;;;;;;5016388;28;20105;-69
2021/12/07 07:25:55;;;;;;;8.57;5.00;;;22.20;99.90;;;;;;5017945;28;20147;-71
2021/12/07 07:28:27;;;;;;;10.10;4.47;;;22.10;99.90;;;;;;5020257;28;20018;-70
2021/12/07 07:30:55;;;;;;;7.35;3.67;;;22.10;99.90;;;;;;5021862;28;20111;-73
2021/12/07 07:33:24;;;;;;;9.70;3.65;;;22.20;99.90;;;;;;5019949;28;20026;-72
2021/12/07 07:35:51;;;;;;;7.90;4.10;;;22.10;99.90;;;;;;5023093;28;20439;-70
2021/12/07 07:38:19;;;;;;;11.20;4.20;;;22.10;99.90;;;;;;5027092;28;20025;-69
2021/12/07 07:40:47;;;;;;;7.95;3.13;;;22.10;99.90;;;;;;5040534;28;20689;-67
2021/12/07 07:43:16;;;;;;;7.82;3.30;;;22.10;99.90;;;;;;5039727;28;20025;-71
2021/12/07 07:45:49;;;;;;;8.75;3.67;;;22.10;99.90;;;;;;5039988;28;20024;-70
2021/12/07 07:48:18;;;;;;;7.68;4.38;;;22.00;99.90;;;;;;5039812;28;20033;-67
2021/12/07 07:50:46;;;;;;;9.55;3.83;;;22.00;99.90;;;;;;5038668;28;20021;-68
2021/12/07 07:53:13;;;;;;;7.53;3.17;;;22.00;99.90;;;;;;5020017;28;20037;-69
2021/12/07 07:55:42;;;;;;;8.93;4.40;;;22.00;99.90;;;;;;5012699;28;20018;-70
2021/12/07 07:58:12;;;;;;;7.20;2.60;;;22.00;99.90;;;;;;5015129;28;20034;-70
2021/12/07 08:00:41;;;;;;;9.02;3.28;;;22.00;99.90;;;;;;5013638;28;20013;-71
2021/12/07 08:03:08;;;;;;;4.32;2.40;;;22.00;99.90;;;;;;5014582;28;20080;-70
2021/12/07 08:05:36;;;;;;;5.93;2.97;;;22.10;99.90;;;;;;5014472;28;20105;-69
2021/12/07 08:08:04;;;;;;;5.97;2.10;;;22.10;99.90;;;;;;5014867;28;20025;-69
2021/12/07 08:10:31;;;;;;;7.38;3.72;;;22.10;99.90;;;;;;5014592;28;20036;-68
2021/12/07 08:13:06;;;;;;;8.38;3.35;;;22.10;99.90;;;;;;5014665;28;20027;-70
2021/12/07 08:15:38;;;;;;;6.65;3.33;;;22.10;99.90;;;;;;5015260;28;20120;-71
2021/12/07 08:18:06;;;;;;;5.35;2.72;;;22.00;99.90;;;;;;5014697;28;20037;-70
2021/12/07 08:20:34;;;;;;;5.65;3.05;;;21.90;99.90;;;;;;5014840;28;20033;-69
2021/12/07 08:23:05;;;;;;;9.15;2.85;;;21.90;99.90;;;;;;5015128;28;20029;-73
2021/12/07 08:25:39;;;;;;;6.80;2.53;;;21.80;99.90;;;;;;5014427;28;20147;-68
2021/12/07 08:28:07;;;;;;;6.45;2.92;;;21.80;99.90;;;;;;5013981;28;20034;-72
2021/12/07 08:30:36;;;;;;;11.50;3.97;;;21.80;99.90;;;;;;5015614;28;20018;-70
2021/12/07 08:33:04;;;;;;;8.95;5.75;;;21.80;99.90;;;;;;5014518;28;20023;-67
2021/12/07 08:35:34;;;;;;;11.85;6.32;;;21.80;99.90;;;;;;5015013;28;20022;-77
2021/12/07 08:38:01;;;;;;;7.63;3.10;;;21.80;99.90;;;;;;5013432;28;20030;-74
2021/12/07 08:40:32;;;;;;;7.53;3.50;;;21.70;99.90;;;;;;5014297;28;20091;-71
2021/12/07 08:43:00;;;;;;;4.65;2.45;;;21.60;99.90;;;;;;5013356;28;20029;-71
2021/12/07 08:45:27;;;;;;;6.78;3.13;;;21.60;99.90;;;;;;5014087;28;20026;-69
2021/12/07 08:47:55;;;;;;;7.63;3.20;;;21.60;99.90;;;;;;5013188;28;20032;-71
2021/12/07 08:50:25;;;;;;;5.65;3.05;;;21.60;99.90;;;;;;5014096;28;20037;-72
2021/12/07 08:52:54;;;;;;;6.68;3.17;;;21.50;99.90;;;;;;5012712;28;20029;-70
2021/12/07 09:00:54;;;;;;;7.78;2.47;;;21.40;99.90;;;;;;5012621;28;20689;-73
2021/12/07 09:03:22;;;;;;;4.78;2.70;;;21.40;99.90;;;;;;5014353;28;20056;-70
2021/12/07 09:05:50;;;;;;;8.13;3.25;;;21.30;99.90;;;;;;5013317;28;20120;-70
2021/12/07 09:08:18;;;;;;;8.18;3.05;;;21.30;99.90;;;;;;5013317;28;20612;-71
2021/12/07 09:10:45;;;;;;;5.65;3.38;;;21.30;99.90;;;;;;5013395;28;20037;-71
2021/12/07 09:13:13;;;;;;;5.82;3.55;;;21.20;99.90;;;;;;5014110;28;20103;-69
2021/12/07 09:15:40;;;;;;;5.15;3.67;;;21.20;99.90;;;;;;5014435;28;20029;-70
2021/12/07 09:18:08;;;;;;;8.63;3.85;;;21.20;99.90;;;;;;5012646;28;20053;-71
2021/12/07 09:20:36;;;;;;;5.72;3.55;;;21.20;99.90;;;;;;5013411;28;20025;-73
2021/12/07 09:23:03;;;;;;;5.32;3.45;;;21.20;99.90;;;;;;5012431;28;20083;-70
2021/12/07 09:25:31;;;;;;;6.38;3.90;;;21.20;99.90;;;;;;5011877;28;20422;-69
2021/12/07 09:27:58;;;;;;;8.25;3.63;;;21.20;99.90;;;;;;5013117;28;20021;-73
2021/12/07 09:30:26;;;;;;;7.07;3.53;;;21.30;99.90;;;;;;5012805;28;20025;-71
2021/12/07 09:32:54;;;;;;;7.47;3.70;;;21.30;99.90;;;;;;5012223;28;20136;-74
2021/12/07 09:35:22;;;;;;;6.03;3.85;;;21.30;99.90;;;;;;5012173;28;20040;-71
2021/12/07 09:37:52;;;;;;;6.53;3.67;;;21.30;99.90;;;;;;5012762;28;20602;-69
2021/12/07 09:40:23;;;;;;;7.30;3.72;;;21.30;99.90;;;;;;5012987;28;20394;-69
2021/12/07 09:42:52;;;;;;;7.28;3.80;;;21.30;99.90;;;;;;5012700;28;20037;-69
2021/12/07 09:45:20;;;;;;;7.50;3.88;;;21.20;99.90;;;;;;5013500;28;20026;-70
2021/12/07 09:47:48;;;;;;;5.20;3.70;;;21.20;99.90;;;;;;5013742;28;20115;-70
2021/12/07 09:50:22;;;;;;;7.68;3.72;;;21.20;99.90;;;;;;5013061;28;20041;-70
2021/12/07 09:52:50;;;;;;;8.85;4.38;;;21.10;99.90;;;;;;5013322;28;20052;-69
2021/12/07 09:55:19;;;;;;;8.68;4.18;;;21.10;99.90;;;;;;5013991;28;20026;-71
2021/12/07 09:57:47;;;;;;;6.82;4.15;;;21.00;99.90;;;;;;5013626;28;20067;-67
2021/12/07 10:00:21;;;;;;;6.05;3.65;;;21.00;99.90;;;;;;5013452;28;20559;-68
2021/12/07 10:02:50;;;;;;;7.65;4.28;;;21.00;99.90;;;;;;5012575;28;20064;-70
2021/12/07 10:05:19;;;;;;;5.78;3.90;;;21.00;99.90;;;;;;5015250;28;20026;-70
2021/12/07 10:07:47;;;;;;;9.82;5.50;;;21.00;99.90;;;;;;5017361;28;20041;-70
2021/12/07 10:10:25;;;;;;;12.73;5.00;;;21.10;99.90;;;;;;5017459;28;20021;-71
2021/12/07 10:12:52;;;;;;;9.18;4.65;;;21.00;99.90;;;;;;5017931;28;20022;-71
2021/12/07 10:15:20;;;;;;;11.48;4.65;;;21.10;99.90;;;;;;5018721;28;20027;-70
2021/12/07 10:18:22;;;;;;;10.27;5.10;;;21.10;99.90;;;;;;5016609;28;20390;-70
2021/12/07 10:20:53;;;;;;;6.72;4.15;;;21.10;99.90;;;;;;4994883;28;20053;-69
2021/12/07 10:23:20;;;;;;;6.63;4.35;;;21.00;99.90;;;;;;5017710;28;20021;-71
2021/12/07 10:25:57;;;;;;;7.82;4.53;;;20.90;99.90;;;;;;5016101;28;20374;-70
2021/12/07 10:28:50;;;;;;;6.07;3.65;;;20.90;99.90;;;;;;5017722;28;20025;-70
2021/12/07 10:31:22;;;;;;;8.75;4.82;;;20.90;99.90;;;;;;5009347;28;20029;-71
2021/12/07 10:33:54;;;;;;;14.70;8.68;;;20.90;99.90;;;;;;5014896;28;20499;-71
2021/12/07 10:36:35;;;;;;;6.30;4.93;;;20.90;99.90;;;;;;5010994;28;20063;-71
2021/12/07 10:39:12;;;;;;;9.13;4.90;;;20.90;99.90;;;;;;5013725;28;20078;-70
2021/12/07 10:42:02;;;;;;;9.50;5.55;;;20.90;99.90;;;;;;5011306;28;20030;-70
2021/12/07 10:44:31;;;;;;;11.07;6.43;;;20.80;99.90;;;;;;4997291;28;20065;-70
2021/12/07 10:47:03;;;;;;;8.35;4.95;;;20.80;99.90;;;;;;4997750;28;20049;-70
2021/12/07 10:49:34;;;;;;;8.75;5.68;;;20.80;99.90;;;;;;4996850;28;20018;-71
2021/12/07 10:52:09;;;;;;;11.48;5.43;;;20.80;99.90;;;;;;4997466;28;20026;-70
2021/12/07 10:54:42;;;;;;;7.35;4.53;;;20.70;99.90;;;;;;5004956;28;20486;-71
2021/12/07 10:57:13;;;;;;;10.38;5.13;;;20.60;99.90;;;;;;4996829;28;20040;-71
2021/12/07 11:00:07;;;;;;;7.87;4.13;;;20.60;99.90;;;;;;4995864;28;20474;-71
2021/12/07 11:02:37;;;;;;;6.72;4.88;;;20.60;99.90;;;;;;4994746;28;20177;-71
2021/12/07 11:05:11;;;;;;;7.10;4.82;;;20.60;99.90;;;;;;5002567;28;20017;-69
2021/12/07 11:07:39;;;;;;;10.60;4.93;;;20.60;99.90;;;;;;5015283;28;20109;-71
2021/12/07 11:10:19;;;;;;;8.38;5.65;;;20.60;99.90;;;;;;5016510;28;20024;-68
2021/12/07 11:15:34;;;;;;;6.40;4.13;;;20.60;99.90;;;;;;5007202;28;20095;-70
2021/12/07 11:18:11;;;;;;;6.40;3.85;;;20.50;99.90;;;;;;4996919;28;20097;-71
2021/12/07 11:20:40;;;;;;;7.90;3.60;;;20.50;99.90;;;;;;5008199;28;20044;-70
2021/12/07 11:23:20;;;;;;;9.30;3.35;;;20.50;99.90;;;;;;5024506;28;20068;-70
2021/12/07 11:31:27;;;;;;;7.50;3.67;;;20.50;99.90;;;;;;5015899;28;20409;-70
2021/12/07 11:34:12;;;;;;;7.07;3.20;;;20.50;99.90;;;;;;5016483;28;20025;-70
2021/12/07 11:36:48;;;;;;;6.07;3.70;;;20.50;99.90;;;;;;5016937;28;20475;-70
2021/12/07 11:39:31;;;;;;;4.03;2.78;;;20.50;99.90;;;;;;5015564;28;20022;-70
2021/12/07 11:42:14;;;;;;;5.22;3.35;;;20.60;99.90;;;;;;5015614;28;20053;-71
2021/12/07 11:45:18;;;;;;;4.25;2.60;;;20.50;99.90;;;;;;5016544;28;20025;-70
2021/12/07 11:47:54;;;;;;;5.45;2.80;;;20.50;99.90;;;;;;5016405;28;20053;-71
2021/12/07 11:50:33;;;;;;;4.13;2.88;;;20.50;99.90;;;;;;5016402;28;20089;-69
2021/12/07 11:53:25;;;;;;;5.15;2.65;;;20.50;99.90;;;;;;5015756;28;20057;-68
2021/12/07 11:55:56;;;;;;;6.80;2.33;;;20.50;99.90;;;;;;5016794;28;20467;-71
2021/12/07 11:58:23;;;;;;;5.15;2.45;;;20.50;99.90;;;;;;5016377;28;20033;-71
2021/12/07 12:00:55;;;;;;;2.63;1.92;;;20.40;99.90;;;;;;5016774;28;20516;-70
2021/12/07 12:03:25;;;;;;;7.22;2.53;;;20.30;99.90;;;;;;5015873;28;20390;-70
2021/12/07 12:05:54;;;;;;;5.20;2.10;;;20.30;99.90;;;;;;5016586;28;20064;-70
2021/12/07 12:08:22;;;;;;;3.85;2.10;;;20.40;99.90;;;;;;5015527;28;20021;-69
2021/12/07 12:11:16;;;;;;;6.18;2.70;;;20.40;99.90;;;;;;5016457;28;20626;-69
2021/12/07 12:13:57;;;;;;;3.45;2.17;;;20.40;99.90;;;;;;5019136;28;20547;-70
2021/12/07 12:16:42;;;;;;;5.57;2.60;;;20.40;99.90;;;;;;5019804;28;20033;-70
2021/12/07 12:19:29;;;;;;;7.55;2.83;;;20.40;99.90;;;;;;5019185;28;20409;-70
2021/12/07 12:22:26;;;;;;;5.28;2.05;;;20.40;99.90;;;;;;5020136;28;20029;-71
2021/12/07 12:24:58;;;;;;;4.75;1.90;;;20.40;99.90;;;;;;5020209;28;20040;-69
2021/12/07 12:27:33;;;;;;;6.90;2.60;;;20.40;99.90;;;;;;5019596;28;20049;-70
2021/12/07 12:30:16;;;;;;;4.40;2.00;;;20.40;99.90;;;;;;5019040;28;20048;-71
2021/12/07 12:32:46;;;;;;;5.28;2.20;;;20.40;99.90;;;;;;5019608;28;20021;-69
2021/12/07 12:35:15;;;;;;;4.90;2.58;;;20.40;99.90;;;;;;5019308;28;20072;-68
2021/12/07 12:37:49;;;;;;;5.90;2.30;;;20.30;99.90;;;;;;5020198;28;20080;-69
2021/12/07 12:40:29;;;;;;;6.20;2.78;;;20.40;99.90;;;;;;5019239;28;20018;-69
2021/12/07 12:42:58;;;;;;;5.20;2.10;;;20.40;99.90;;;;;;5019719;28;20099;-68
2021/12/07 12:45:37;;;;;;;8.88;2.38;;;20.30;99.90;;;;;;5018788;28;20029;-70
2021/12/07 12:48:11;;;;;;;5.13;2.03;;;20.30;99.90;;;;;;4999400;28;20038;-69
2021/12/07 12:50:41;;;;;;;6.80;2.22;;;20.30;99.90;;;;;;4999330;28;20101;-69
2021/12/07 12:53:15;;;;;;;5.10;2.50;;;20.30;99.90;;;;;;4998893;28;20599;-69
2021/12/07 12:55:53;;;;;;;4.47;2.20;;;20.30;99.90;;;;;;5000542;28;20230;-69
2021/12/07 12:58:33;;;;;;;4.15;2.47;;;20.30;99.90;;;;;;4999106;28;20093;-68
2021/12/07 13:01:42;;;;;;;4.88;2.15;;;20.30;99.90;;;;;;4999488;28;20022;-69
2021/12/07 13:04:26;;;;;;;4.72;2.28;;;20.20;99.90;;;;;;4975759;28;20093;-70
2021/12/07 13:09:44;;;;;;;2.97;1.98;;;20.20;99.90;;;;;;4980056;28;20122;-69
2021/12/07 13:12:39;;;;;;;5.90;2.80;;;20.20;99.90;;;;;;4978547;28;20382;-69
2021/12/07 13:15:11;;;;;;;6.25;2.60;;;20.10;99.90;;;;;;4978489;28;20092;-68
2021/12/07 13:17:46;;;;;;;5.75;2.47;;;20.10;99.90;;;;;;4979789;28;20165;-68
2021/12/07 13:20:29;;;;;;;5.28;2.55;;;20.10;99.90;;;;;;4978119;28;20057;-69
2021/12/07 13:23:07;;;;;;;3.97;1.90;;;20.10;99.90;;;;;;4978400;28;20045;-68
2021/12/07 13:25:42;;;;;;;4.32;2.00;;;20.10;99.90;;;;;;4979599;28;20035;-68
2021/12/07 13:28:13;;;;;;;2.47;1.67;;;20.10;99.90;;;;;;4979240;28;20018;-70
2021/12/07 13:30:50;;;;;;;3.72;1.90;;;20.10;99.90;;;;;;4979557;28;20022;-69
2021/12/07 13:33:51;;;;;;;8.90;2.13;;;20.10;99.90;;;;;;4978215;28;20053;-68
2021/12/07 13:36:36;;;;;;;5.57;2.45;;;20.10;99.90;;;;;;4978624;28;20464;-69
2021/12/07 13:39:26;;;;;;;5.07;2.47;;;20.10;99.90;;;;;;4979333;28;20022;-69
2021/12/07 13:42:11;;;;;;;3.85;2.00;;;20.10;99.90;;;;;;4979162;28;20113;-70
2021/12/07 13:44:47;;;;;;;4.22;2.20;;;20.10;99.90;;;;;;4979446;28;20702;-70
2021/12/07 13:47:20;;;;;;;4.75;2.42;;;20.10;99.90;;;;;;4992910;28;20064;-69
2021/12/07 13:49:54;;;;;;;4.55;2.35;;;20.10;99.90;;;;;;4998132;28;20026;-70
2021/12/07 13:52:29;;;;;;;8.43;2.88;;;20.10;99.90;;;;;;4997680;28;20528;-68
2021/12/07 13:54:59;;;;;;;5.90;2.53;;;20.10;99.90;;;;;;4997706;28;20026;-70
2021/12/07 13:57:35;;;;;;;5.70;3.00;;;20.10;99.90;;;;;;4997874;28;20022;-70
2021/12/07 14:00:10;;;;;;;5.03;2.75;;;20.10;99.90;;;;;;4997546;28;20108;-69
2021/12/07 14:02:39;;;;;;;5.88;2.55;;;20.10;99.90;;;;;;4997073;28;20041;-69
2021/12/07 14:05:11;;;;;;;5.90;1.73;;;20.10;99.90;;;;;;4997236;28;20029;-68
2021/12/07 14:07:39;;;;;;;4.95;2.22;;;20.10;99.90;;;;;;4998034;28;20054;-69
2021/12/07 14:10:25;;;;;;;4.63;2.83;;;20.00;99.90;;;;;;4996974;28;20414;-68
2021/12/07 14:12:55;;;;;;;4.30;2.28;;;20.00;99.90;;;;;;4997596;28;20026;-69
2021/12/07 14:15:28;;;;;;;3.10;1.92;;;20.00;99.90;;;;;;4996571;28;20165;-69
2021/12/07 14:18:03;;;;;;;5.40;2.70;;;20.00;99.90;;;;;;4997473;28;20496;-69
2021/12/07 14:20:39;;;;;;;3.33;2.10;;;19.90;99.90;;;;;;4997884;28;20025;-69
2021/12/07 14:23:28;;;;;;;5.60;2.72;;;20.00;99.90;;;;;;4997474;28;20179;-70
2021/12/07 14:25:58;;;;;;;4.03;2.00;;;19.90;99.90;;;;;;4997905;28;20120;-68
2021/12/07 14:28:30;;;;;;;6.82;2.50;;;20.00;99.90;;;;;;4998445;28;20906;-69
2021/12/07 14:31:14;;;;;;;4.13;2.33;;;20.00;99.90;;;;;;5007116;28;20026;-69
2021/12/07 14:34:00;;;;;;;4.50;2.28;;;20.00;99.90;;;;;;5007979;28;20424;-69
2021/12/07 14:36:27;;;;;;;3.65;2.30;;;20.00;99.90;;;;;;5006662;28;20045;-69
2021/12/07 14:38:57;;;;;;;5.75;2.78;;;20.00;99.90;;;;;;5012870;28;20021;-69
2021/12/07 14:41:26;;;;;;;6.10;2.80;;;19.90;99.90;;;;;;5016782;28;20033;-69
2021/12/07 14:43:55;;;;;;;4.43;2.75;;;20.00;99.90;;;;;;5017072;28;20014;-70
2021/12/07 14:46:28;;;;;;;6.53;3.28;;;20.00;99.90;;;;;;5016212;28;20091;-70
2021/12/07 14:48:57;;;;;;;13.88;4.53;;;20.00;99.90;;;;;;5016994;28;20222;-70
2021/12/07 14:51:28;;;;;;;17.27;4.43;;;20.10;99.90;;;;;;5016107;28;20025;-70
2021/12/07 14:53:59;;;;;;;26.70;5.72;;;20.10;99.90;;;;;;5016934;28;20055;-70
2021/12/07 14:56:29;;;;;;;28.92;6.15;;;20.10;99.90;;;;;;5016228;28;20429;-70
2021/12/07 14:58:59;;;;;;;31.55;6.18;;;20.10;99.90;;;;;;5017220;28;20029;-69
2021/12/07 15:01:33;;;;;;;35.47;6.57;;;20.00;99.90;;;;;;5016751;28;20121;-70
2021/12/07 15:04:03;;;;;;;26.17;4.88;;;20.00;99.90;;;;;;5016452;28;20028;-68
2021/12/07 15:06:33;;;;;;;30.67;7.32;;;19.80;99.90;;;;;;5014757;28;20037;-69
2021/12/07 15:09:04;;;;;;;30.05;6.70;;;19.70;99.90;;;;;;5015103;28;20022;-68